Jijel, Algeria
Current Conditions -  °F | °C
As of 12:00 PM on Friday 24 Oct 2014 (Local Time) from DAAV Reporting Station
Broken Clouds Broken Clouds  
Wind Chill: 75°   Ceiling: 2000
Heat Index: 75°   Visibility: 6mi
Dew Point: 64°   Wind: 18mph
Humidity: 69%   Direction: 280°W
Pressure: 30.03"   Gusts: NA
Location:  36.82°N, 5.77°E
Report Text: DAAV 241100Z 28016KT 9999 BKN020TCU 24/18 Q1017
Loading
Personal Weather Stations






























Interactive Weather Map
Tropical Storm Tracking
New forecast layout! Learn more

10-Day Weather Forecast

Advertisements
Track Severe Weather on mobile